createdAt,value
2023-03-16T00:01:11.837Z,3.50
2023-03-16T00:03:39.077Z,3.55
2023-03-16T00:06:06.488Z,3.80
2023-03-16T00:08:33.654Z,3.55
2023-03-16T00:11:02.582Z,3.63
2023-03-16T00:13:30.237Z,3.60
2023-03-16T00:15:59.395Z,3.67
2023-03-16T00:18:27.799Z,3.70
2023-03-16T00:20:56.204Z,3.88
2023-03-16T00:23:27.513Z,3.70
2023-03-16T00:25:55.814Z,3.50
2023-03-16T00:28:23.504Z,3.60
2023-03-16T00:30:50.632Z,3.65
2023-03-16T00:33:17.838Z,3.60
2023-03-16T00:35:51.517Z,3.63
2023-03-16T00:38:19.219Z,3.83
2023-03-16T00:40:47.129Z,3.53
2023-03-16T00:43:18.671Z,3.45
2023-03-16T00:45:46.397Z,3.60
2023-03-16T00:48:13.882Z,3.10
2023-03-16T00:50:43.107Z,3.03
2023-03-16T00:53:10.786Z,3.38
2023-03-16T00:55:38.211Z,3.55
2023-03-16T00:58:05.546Z,2.90
2023-03-16T01:00:33.906Z,3.40
2023-03-16T01:03:03.397Z,3.28
2023-03-16T01:05:33.323Z,3.72
2023-03-16T01:08:02.748Z,3.70
2023-03-16T01:10:30.517Z,3.60
2023-03-16T01:12:57.735Z,3.78
2023-03-16T01:15:25.226Z,3.58
2023-03-16T01:17:52.538Z,4.13
2023-03-16T01:20:19.779Z,3.42
2023-03-16T01:22:47.097Z,3.70
2023-03-16T01:25:14.697Z,3.85
2023-03-16T01:27:43.062Z,3.80
2023-03-16T01:30:12.347Z,4.07
2023-03-16T01:32:40.120Z,3.90
2023-03-16T01:35:09.285Z,3.92
2023-03-16T01:37:36.535Z,3.92
2023-03-16T01:40:16.066Z,4.10
2023-03-16T01:42:47.453Z,4.10
2023-03-16T01:45:33.979Z,4.18
2023-03-16T01:48:01.335Z,4.53
2023-03-16T01:50:28.896Z,4.03
2023-03-16T01:52:56.300Z,4.10
2023-03-16T01:55:23.760Z,4.38
2023-03-16T01:57:51.256Z,4.10
2023-03-16T02:00:23.711Z,4.50
2023-03-16T02:03:19.618Z,3.92
2023-03-16T02:06:06.066Z,3.80
2023-03-16T02:08:34.842Z,4.43
2023-03-16T02:11:02.064Z,4.38
2023-03-16T02:13:48.193Z,4.22
2023-03-16T02:16:19.394Z,4.78
2023-03-16T02:18:51.547Z,4.40
2023-03-16T02:21:33.165Z,4.45
2023-03-16T02:24:02.354Z,4.10
2023-03-16T02:26:34.090Z,3.55
2023-03-16T02:29:07.022Z,4.25
2023-03-16T02:31:34.349Z,4.57
2023-03-16T02:34:01.932Z,4.43
2023-03-16T02:36:30.307Z,4.35
2023-03-16T02:38:57.437Z,4.50
2023-03-16T02:41:25.078Z,4.85
2023-03-16T02:46:35.683Z,4.15
2023-03-16T02:49:03.142Z,4.75
2023-03-16T02:51:32.324Z,4.72
2023-03-16T02:53:59.638Z,5.10
2023-03-16T02:56:28.546Z,4.20
2023-03-16T02:58:57.809Z,4.40
2023-03-16T03:01:25.810Z,4.20
2023-03-16T03:03:53.391Z,4.40
2023-03-16T03:06:20.633Z,3.92
2023-03-16T03:08:47.971Z,4.78
2023-03-16T03:11:15.527Z,4.25
2023-03-16T03:13:44.549Z,4.43
2023-03-16T03:16:15.853Z,3.97
2023-03-16T03:18:43.250Z,4.50
2023-03-16T03:21:10.433Z,4.85
2023-03-16T03:23:37.633Z,4.05
2023-03-16T03:26:04.844Z,4.03
2023-03-16T03:28:34.240Z,3.28
2023-03-16T03:31:01.855Z,4.07
2023-03-16T03:33:29.936Z,3.35
2023-03-16T03:35:58.747Z,4.40
2023-03-16T03:38:29.818Z,3.90
2023-03-16T03:41:00.316Z,3.50
2023-03-16T03:43:31.344Z,4.20
2023-03-16T03:45:59.845Z,4.18
2023-03-16T03:48:27.639Z,2.95
2023-03-16T03:50:56.502Z,3.85
2023-03-16T03:53:41.953Z,3.10
2023-03-16T03:56:38.013Z,4.20
2023-03-16T03:59:09.966Z,3.95
2023-03-16T04:01:57.356Z,4.15
2023-03-16T04:04:28.748Z,4.00
2023-03-16T04:06:56.008Z,3.58
2023-03-16T04:09:24.574Z,3.88
2023-03-16T04:11:51.832Z,4.70
2023-03-16T04:14:19.153Z,4.18
2023-03-16T04:16:46.414Z,4.15
2023-03-16T04:19:14.368Z,4.10
2023-03-16T04:21:42.065Z,4.50
2023-03-16T04:24:09.526Z,3.70
2023-03-16T04:26:37.094Z,4.60
2023-03-16T04:29:05.254Z,4.60
2023-03-16T04:31:34.155Z,4.43
2023-03-16T04:34:02.474Z,3.65
2023-03-16T04:36:29.860Z,4.22
2023-03-16T04:38:57.128Z,3.60
2023-03-16T04:41:25.365Z,4.18
2023-03-16T04:44:00.591Z,4.53
2023-03-16T04:46:29.505Z,4.47
2023-03-16T04:48:58.971Z,3.40
2023-03-16T04:51:28.832Z,3.72
2023-03-16T04:54:05.344Z,4.22
2023-03-16T04:56:41.482Z,3.92
2023-03-16T04:59:17.007Z,4.55
2023-03-16T05:01:59.120Z,4.30
2023-03-16T05:04:26.286Z,4.05
2023-03-16T05:06:53.581Z,3.30
2023-03-16T05:09:25.819Z,4.05
2023-03-16T05:11:53.366Z,4.45
2023-03-16T05:14:20.794Z,3.65
2023-03-16T05:17:20.431Z,3.28
2023-03-16T05:19:47.822Z,4.05
2023-03-16T05:22:17.190Z,3.95
2023-03-16T05:25:04.600Z,3.20
2023-03-16T05:27:32.246Z,4.00
2023-03-16T05:30:01.184Z,3.35
2023-03-16T05:32:30.076Z,4.07
2023-03-16T05:34:58.559Z,2.55
2023-03-16T05:37:25.775Z,3.92
2023-03-16T05:39:53.222Z,3.65
2023-03-16T05:42:20.431Z,3.00
2023-03-16T05:44:54.182Z,4.10
2023-03-16T05:47:36.611Z,3.78
2023-03-16T05:50:05.948Z,3.80
2023-03-16T05:52:38.276Z,3.30
2023-03-16T05:55:14.590Z,3.92
2023-03-16T05:57:42.566Z,3.53
2023-03-16T06:00:14.138Z,4.10
2023-03-16T06:02:48.408Z,3.60
2023-03-16T06:05:17.986Z,4.05
2023-03-16T06:07:46.805Z,3.78
2023-03-16T06:10:15.388Z,2.80
2023-03-16T06:12:42.875Z,3.22
2023-03-16T06:15:11.329Z,3.70
2023-03-16T06:17:39.506Z,4.20
2023-03-16T06:20:11.196Z,3.47
2023-03-16T06:22:41.165Z,4.03
2023-03-16T06:25:09.998Z,3.70
2023-03-16T06:27:37.791Z,3.20
2023-03-16T06:30:14.700Z,2.78
2023-03-16T06:32:42.418Z,2.75
2023-03-16T06:35:10.659Z,2.55
2023-03-16T06:37:41.547Z,3.17
2023-03-16T06:40:36.080Z,2.40
2023-03-16T06:43:03.283Z,3.15
2023-03-16T06:45:31.433Z,2.80
2023-03-16T06:47:58.550Z,2.50
2023-03-16T06:50:26.040Z,2.75
2023-03-16T06:52:53.499Z,2.70
2023-03-16T06:55:20.922Z,2.50
2023-03-16T06:57:49.613Z,2.70
2023-03-16T07:00:19.343Z,1.88
2023-03-16T07:02:46.472Z,2.60
2023-03-16T07:05:14.832Z,2.20
2023-03-16T07:07:43.423Z,2.28
2023-03-16T07:10:11.938Z,2.50
2023-03-16T07:12:39.224Z,2.80
2023-03-16T07:15:06.846Z,2.30
2023-03-16T07:17:34.136Z,1.95
2023-03-16T07:20:10.395Z,2.50
2023-03-16T07:22:38.684Z,2.15
2023-03-16T07:25:07.881Z,2.45
2023-03-16T07:27:35.063Z,2.65
2023-03-16T07:32:36.764Z,2.08
2023-03-16T07:35:04.765Z,2.15
2023-03-16T07:37:34.974Z,2.03
2023-03-16T07:42:32.332Z,1.90
2023-03-16T07:45:05.926Z,2.40
2023-03-16T07:47:33.805Z,1.90
2023-03-16T07:50:08.825Z,2.05
2023-03-16T07:52:37.563Z,2.45
2023-03-16T07:55:05.353Z,1.70
2023-03-16T07:57:32.821Z,2.13
2023-03-16T08:00:02.979Z,2.08
2023-03-16T08:02:40.138Z,1.60
2023-03-16T08:05:12.822Z,2.80
2023-03-16T08:07:44.280Z,2.10
2023-03-16T08:10:15.803Z,1.58
2023-03-16T08:12:52.896Z,1.73
2023-03-16T08:15:21.564Z,2.33
2023-03-16T08:17:50.207Z,1.92
2023-03-16T08:20:23.648Z,1.80
2023-03-16T08:22:51.139Z,2.75
2023-03-16T08:25:23.486Z,1.80
2023-03-16T08:28:09.373Z,1.80
2023-03-16T08:30:37.864Z,2.13
2023-03-16T08:33:25.899Z,2.10
2023-03-16T08:35:53.603Z,1.80
2023-03-16T08:38:20.906Z,1.60
2023-03-16T08:40:52.200Z,2.63
2023-03-16T08:43:21.856Z,2.00
2023-03-16T08:45:50.782Z,1.80
2023-03-16T08:48:22.235Z,1.95
2023-03-16T08:50:54.026Z,2.00
2023-03-16T08:53:21.311Z,1.80
2023-03-16T08:55:48.739Z,1.63
2023-03-16T08:58:15.960Z,2.00
2023-03-16T09:00:46.126Z,2.22
2023-03-16T09:03:13.829Z,1.83
2023-03-16T09:05:41.054Z,1.73
2023-03-16T09:08:08.735Z,2.13
2023-03-16T09:10:36.419Z,2.38
2023-03-16T09:13:03.744Z,2.30
2023-03-16T09:15:31.487Z,1.73
2023-03-16T09:18:00.614Z,1.70
2023-03-16T09:20:30.071Z,1.83
2023-03-16T09:22:57.634Z,2.53
2023-03-16T09:25:26.066Z,2.28
2023-03-16T09:27:54.118Z,2.38
2023-03-16T09:30:21.365Z,2.03
2023-03-16T09:32:49.012Z,2.30
2023-03-16T09:35:16.312Z,2.88
2023-03-16T09:37:45.906Z,2.53
2023-03-16T09:40:29.005Z,2.35
2023-03-16T09:43:33.556Z,2.10
2023-03-16T09:46:07.527Z,1.70
2023-03-16T09:48:36.453Z,1.98
2023-03-16T09:51:05.907Z,1.67
2023-03-16T09:53:38.086Z,2.13
2023-03-16T09:56:11.518Z,2.55
2023-03-16T09:58:39.350Z,2.50
2023-03-16T10:01:09.724Z,2.67
2023-03-16T10:03:36.869Z,1.60
2023-03-16T10:06:06.650Z,2.00
2023-03-16T10:08:38.166Z,2.28
2023-03-16T10:11:25.688Z,2.60
2023-03-16T10:14:05.333Z,2.88
2023-03-16T10:16:38.867Z,2.78
2023-03-16T10:19:23.380Z,2.72
2023-03-16T10:21:53.302Z,2.15
2023-03-16T10:24:40.061Z,2.78
2023-03-16T10:27:14.252Z,1.92
2023-03-16T10:29:41.422Z,1.63
2023-03-16T10:32:19.606Z,2.08
2023-03-16T10:34:55.624Z,2.10
2023-03-16T10:37:26.325Z,1.85
2023-03-16T10:39:54.889Z,2.65
2023-03-16T10:42:23.282Z,2.75
2023-03-16T10:44:50.638Z,2.22
2023-03-16T10:47:19.439Z,2.00
2023-03-16T10:49:48.904Z,2.13
2023-03-16T10:52:42.923Z,2.05
2023-03-16T10:55:34.805Z,2.30
2023-03-16T10:58:02.272Z,3.08
2023-03-16T11:00:31.178Z,1.90
2023-03-16T11:02:59.720Z,2.55
2023-03-16T11:05:32.307Z,3.00
2023-03-16T11:07:59.572Z,2.50
2023-03-16T11:10:27.813Z,2.22
2023-03-16T11:12:57.579Z,2.15
2023-03-16T11:15:26.722Z,1.70
2023-03-16T11:17:54.767Z,2.30
2023-03-16T11:20:28.526Z,2.60
2023-03-16T11:22:56.227Z,2.05
2023-03-16T11:25:33.775Z,2.47
2023-03-16T11:28:12.901Z,1.85
2023-03-16T11:30:57.079Z,2.25
2023-03-16T11:33:27.270Z,3.15
2023-03-16T11:36:02.220Z,2.25
2023-03-16T11:38:44.942Z,2.58
2023-03-16T11:41:18.063Z,2.75
2023-03-16T11:43:45.290Z,2.42
2023-03-16T11:46:16.799Z,2.47
2023-03-16T11:49:08.298Z,2.20
2023-03-16T11:51:44.346Z,3.15
2023-03-16T11:54:30.036Z,2.42
2023-03-16T11:57:28.238Z,2.47
2023-03-16T12:00:18.463Z,2.42
2023-03-16T12:02:54.184Z,2.45
2023-03-16T12:05:39.928Z,2.92
2023-03-16T12:08:10.903Z,2.58
2023-03-16T12:10:50.309Z,2.38
2023-03-16T12:13:40.429Z,2.67
2023-03-16T12:16:27.498Z,2.10
2023-03-16T12:18:57.738Z,2.72
2023-03-16T12:21:32.192Z,2.25
2023-03-16T12:24:07.208Z,2.50
2023-03-16T12:26:39.974Z,2.30
2023-03-16T12:29:19.394Z,2.80
2023-03-16T12:31:52.860Z,2.03
2023-03-16T12:34:25.702Z,2.30
2023-03-16T12:37:05.140Z,2.28
2023-03-16T12:39:45.909Z,3.00
2023-03-16T12:42:31.849Z,1.90
2023-03-16T12:45:04.152Z,1.98
2023-03-16T12:47:38.448Z,2.35
2023-03-16T12:50:11.247Z,2.90
2023-03-16T12:52:46.058Z,3.08
2023-03-16T12:55:19.646Z,2.20
2023-03-16T12:57:49.354Z,2.45
2023-03-16T13:00:16.888Z,2.67
2023-03-16T13:02:57.136Z,2.22
2023-03-16T13:05:32.269Z,2.38
2023-03-16T13:08:08.904Z,2.90
2023-03-16T13:10:37.495Z,2.38
2023-03-16T13:13:11.316Z,2.15
2023-03-16T13:15:39.793Z,2.60
2023-03-16T13:18:10.047Z,1.75
2023-03-16T13:20:55.777Z,2.10
2023-03-16T13:23:27.483Z,1.65
2023-03-16T13:26:03.534Z,3.00
2023-03-16T13:28:32.792Z,2.35
2023-03-16T13:31:01.142Z,1.92
2023-03-16T13:33:29.646Z,2.10
2023-03-16T13:35:59.043Z,2.40
2023-03-16T13:38:28.662Z,2.08
2023-03-16T13:40:57.387Z,2.20
2023-03-16T13:43:28.829Z,2.30
2023-03-16T13:45:56.472Z,2.53
2023-03-16T13:48:24.173Z,1.92
2023-03-16T13:50:58.704Z,2.30
2023-03-16T13:53:30.065Z,2.03
2023-03-16T13:55:58.772Z,2.38
2023-03-16T13:58:37.867Z,2.40
2023-03-16T14:01:06.043Z,2.00
2023-03-16T14:03:36.091Z,2.60
2023-03-16T14:06:04.654Z,2.22
2023-03-16T14:08:32.406Z,1.88
2023-03-16T14:11:01.348Z,2.00
2023-03-16T14:13:29.212Z,2.20
2023-03-16T14:15:58.449Z,1.65
2023-03-16T14:18:47.417Z,3.53
2023-03-16T14:21:21.576Z,2.70
2023-03-16T14:23:52.965Z,2.30
2023-03-16T14:26:24.457Z,2.42
2023-03-16T14:29:24.789Z,1.95
2023-03-16T14:31:52.060Z,2.10
2023-03-16T14:34:28.840Z,2.13
2023-03-16T14:39:40.568Z,1.90
2023-03-16T14:42:15.227Z,2.50
2023-03-16T14:44:42.438Z,2.22
2023-03-16T14:47:18.482Z,2.03
2023-03-16T14:49:45.812Z,3.08
2023-03-16T14:52:18.581Z,2.03
2023-03-16T14:54:45.679Z,2.28
2023-03-16T14:57:19.637Z,1.55
2023-03-16T14:59:46.931Z,1.92
2023-03-16T15:02:17.089Z,2.20
2023-03-16T15:04:44.976Z,2.10
2023-03-16T15:07:22.063Z,1.70
2023-03-16T15:09:50.738Z,2.13
2023-03-16T15:12:19.749Z,2.00
2023-03-16T15:15:06.380Z,2.28
2023-03-16T15:17:33.620Z,2.05
2023-03-16T15:20:02.042Z,1.60
2023-03-16T15:25:28.986Z,2.53
2023-03-16T15:27:56.271Z,1.63
2023-03-16T15:30:25.752Z,1.80
2023-03-16T15:32:53.388Z,1.23
2023-03-16T15:35:21.423Z,1.85
2023-03-16T15:37:49.097Z,1.77
2023-03-16T15:40:24.087Z,1.55
2023-03-16T15:42:52.801Z,1.73
2023-03-16T15:45:21.511Z,1.70
2023-03-16T15:47:49.914Z,1.60
2023-03-16T15:50:18.288Z,1.60
2023-03-16T15:52:47.407Z,1.50
2023-03-16T15:55:23.442Z,1.50
2023-03-16T15:57:57.378Z,1.55
2023-03-16T16:00:25.126Z,1.60
2023-03-16T16:02:52.496Z,1.65
2023-03-16T16:05:19.790Z,1.58
2023-03-16T16:07:47.206Z,1.40
2023-03-16T16:10:15.202Z,1.77
2023-03-16T16:12:42.844Z,1.65
2023-03-16T16:15:18.643Z,1.38
2023-03-16T16:18:02.549Z,1.58
2023-03-16T16:20:33.670Z,1.52
2023-03-16T16:23:03.057Z,1.60
2023-03-16T16:25:35.207Z,1.30
2023-03-16T16:28:04.769Z,1.35
2023-03-16T16:30:32.423Z,1.50
2023-03-16T16:32:59.572Z,1.70
2023-03-16T16:35:28.186Z,1.67
2023-03-16T16:37:55.738Z,1.30
2023-03-16T16:40:23.972Z,1.40
2023-03-16T16:42:52.494Z,2.10
2023-03-16T16:45:21.758Z,2.08
2023-03-16T16:47:52.044Z,1.85
2023-03-16T16:50:24.941Z,1.70
2023-03-16T16:52:53.080Z,1.70
2023-03-16T16:55:21.253Z,1.73
2023-03-16T16:57:49.287Z,2.17
2023-03-16T17:00:18.360Z,2.10
2023-03-16T17:02:47.267Z,2.20
2023-03-16T17:05:16.063Z,2.50
2023-03-16T17:07:43.447Z,2.13
2023-03-16T17:10:16.365Z,2.30
2023-03-16T17:12:43.994Z,2.20
2023-03-16T17:15:19.624Z,2.10
2023-03-16T17:17:47.676Z,2.20
2023-03-16T17:20:19.966Z,2.22
2023-03-16T17:22:51.399Z,1.88
2023-03-16T17:25:18.941Z,2.00
2023-03-16T17:27:47.306Z,2.20
2023-03-16T17:30:30.807Z,1.90
2023-03-16T17:33:01.652Z,2.28
2023-03-16T17:35:29.245Z,2.38
2023-03-16T17:37:56.786Z,2.33
2023-03-16T17:40:25.403Z,2.08
2023-03-16T17:42:55.372Z,2.33
2023-03-16T17:45:27.783Z,2.10
2023-03-16T17:47:56.309Z,2.30
2023-03-16T17:50:25.225Z,2.10
2023-03-16T17:52:53.038Z,2.70
2023-03-16T17:55:24.717Z,2.30
2023-03-16T17:57:53.768Z,2.47
2023-03-16T18:00:32.382Z,2.38
2023-03-16T18:03:04.283Z,2.60
2023-03-16T18:05:32.837Z,3.30
2023-03-16T18:08:04.761Z,2.78
2023-03-16T18:10:33.143Z,3.30
2023-03-16T18:13:03.360Z,3.17
2023-03-16T18:15:32.496Z,3.42
2023-03-16T18:18:00.755Z,3.10
2023-03-16T18:20:31.197Z,2.70
2023-03-16T18:22:59.531Z,3.10
2023-03-16T18:25:40.883Z,3.13
2023-03-16T18:28:08.860Z,3.20
2023-03-16T18:30:37.561Z,2.92
2023-03-16T18:33:05.987Z,2.80
2023-03-16T18:35:33.588Z,2.65
2023-03-16T18:38:00.979Z,2.92
2023-03-16T18:40:29.108Z,3.00
2023-03-16T18:42:56.460Z,2.88
2023-03-16T18:45:23.632Z,3.03
2023-03-16T18:47:52.141Z,2.95
2023-03-16T18:50:21.950Z,3.10
2023-03-16T18:52:49.413Z,3.00
2023-03-16T18:55:18.445Z,2.53
2023-03-16T18:57:47.701Z,2.80
2023-03-16T19:00:16.276Z,2.55
2023-03-16T19:02:44.836Z,2.40
2023-03-16T19:05:19.604Z,2.50
2023-03-16T19:07:48.972Z,2.60
2023-03-16T19:10:22.416Z,2.50
2023-03-16T19:12:50.163Z,2.38
2023-03-16T19:15:19.074Z,2.50
2023-03-16T19:17:47.655Z,2.17
2023-03-16T19:20:16.669Z,2.58
2023-03-16T19:22:46.495Z,2.40
2023-03-16T19:25:17.690Z,2.00
2023-03-16T19:27:45.493Z,2.40
2023-03-16T19:30:33.311Z,2.22
2023-03-16T19:33:00.798Z,2.10
2023-03-16T19:35:48.528Z,2.20
2023-03-16T19:38:16.911Z,2.30
2023-03-16T19:40:44.690Z,1.90
2023-03-16T19:43:16.688Z,1.80
2023-03-16T19:45:44.051Z,1.80
2023-03-16T19:48:15.876Z,2.10
2023-03-16T19:50:42.987Z,2.03
2023-03-16T19:53:16.055Z,2.03
2023-03-16T19:55:43.192Z,1.95
2023-03-16T19:58:21.000Z,1.88
2023-03-16T20:00:48.618Z,1.83
2023-03-16T20:03:15.880Z,2.10
2023-03-16T20:05:43.227Z,2.10
2023-03-16T20:08:17.860Z,2.13
2023-03-16T20:10:45.434Z,2.08
2023-03-16T20:13:12.556Z,2.10
2023-03-16T20:15:39.929Z,1.95
2023-03-16T20:18:13.280Z,2.00
2023-03-16T20:20:41.148Z,2.00
2023-03-16T20:23:19.630Z,1.80
2023-03-16T20:25:47.708Z,2.22
2023-03-16T20:28:18.470Z,2.10
2023-03-16T20:33:20.518Z,2.25
2023-03-16T20:35:49.770Z,2.00
2023-03-16T20:38:17.448Z,2.30
2023-03-16T20:40:45.593Z,2.13
2023-03-16T20:43:23.556Z,1.92
2023-03-16T20:45:52.873Z,2.13
2023-03-16T20:48:20.481Z,2.13
2023-03-16T20:50:48.492Z,2.40
2023-03-16T20:53:15.950Z,2.50
2023-03-16T20:55:43.424Z,2.65
2023-03-16T20:58:18.227Z,2.38
2023-03-16T21:00:46.050Z,2.42
2023-03-16T21:03:23.605Z,2.20
2023-03-16T21:05:51.861Z,2.60
2023-03-16T21:08:19.354Z,2.60
2023-03-16T21:10:48.382Z,2.45
2023-03-16T21:13:19.053Z,2.72
2023-03-16T21:15:46.681Z,2.22
2023-03-16T21:18:16.683Z,2.63
2023-03-16T21:20:44.162Z,2.53
2023-03-16T21:23:15.720Z,2.78
2023-03-16T21:25:47.886Z,2.67
2023-03-16T21:28:15.760Z,2.67
2023-03-16T21:30:44.452Z,2.30
2023-03-16T21:33:38.000Z,2.58
2023-03-16T21:36:07.993Z,2.92
2023-03-16T21:38:35.300Z,2.80
2023-03-16T21:41:02.442Z,2.53
2023-03-16T21:43:29.966Z,2.80
2023-03-16T21:45:57.416Z,3.15
2023-03-16T21:48:26.105Z,2.97
2023-03-16T21:50:54.453Z,2.47
2023-03-16T21:53:22.915Z,2.88
2023-03-16T21:55:51.605Z,2.72
2023-03-16T21:58:18.913Z,3.10
2023-03-16T22:00:46.989Z,3.03
2023-03-16T22:03:50.044Z,3.20
2023-03-16T22:06:18.132Z,2.92
2023-03-16T22:08:45.458Z,2.47
2023-03-16T22:11:27.963Z,3.20
2023-03-16T22:13:55.668Z,3.20
2023-03-16T22:16:24.089Z,2.78
2023-03-16T22:18:52.259Z,2.85
2023-03-16T22:21:22.538Z,3.08
2023-03-16T22:23:49.842Z,3.30
2023-03-16T22:26:19.187Z,3.13
2023-03-16T22:28:46.624Z,2.88
2023-03-16T22:31:16.397Z,2.75
2023-03-16T22:33:44.111Z,2.70
2023-03-16T22:36:12.394Z,2.50
2023-03-16T22:38:39.900Z,3.08
2023-03-16T22:41:07.367Z,3.08
2023-03-16T22:43:38.810Z,2.78
2023-03-16T22:46:06.041Z,3.08
2023-03-16T22:48:33.227Z,2.97
2023-03-16T22:51:04.137Z,2.90
2023-03-16T22:55:58.321Z,3.10
2023-03-16T22:58:31.689Z,3.00
2023-03-16T23:01:01.881Z,2.60
2023-03-16T23:03:29.101Z,2.70
2023-03-16T23:05:56.535Z,2.75
2023-03-16T23:08:23.864Z,2.13
2023-03-16T23:10:52.060Z,2.80
2023-03-16T23:13:20.857Z,2.75
2023-03-16T23:15:48.951Z,2.53
2023-03-16T23:18:20.457Z,2.80
2023-03-16T23:20:48.500Z,2.47
2023-03-16T23:23:16.465Z,2.63
2023-03-16T23:25:44.495Z,2.33
2023-03-16T23:28:16.758Z,2.90
2023-03-16T23:30:44.087Z,2.85
2023-03-16T23:33:13.089Z,2.92
2023-03-16T23:35:41.419Z,2.95
2023-03-16T23:38:08.642Z,3.10
2023-03-16T23:40:37.581Z,2.92
2023-03-16T23:43:04.816Z,2.80
2023-03-16T23:45:39.863Z,2.80
2023-03-16T23:48:08.373Z,2.72
2023-03-16T23:50:37.620Z,2.63
2023-03-16T23:53:04.787Z,3.10
2023-03-16T23:55:32.137Z,2.05
2023-03-16T23:57:59.250Z,2.72
